sensor_id;sensor_type;location;lat;lon;timestamp;pressure;altitude;pressure_sealevel;temperature;humidity
78845;BME280;68195;50.854;2.860;2023-03-01T00:01:44;103002.25;;;-0.91;65.41
78845;BME280;68195;50.854;2.860;2023-03-01T00:04:09;103016.91;;;-0.87;66.61
78845;BME280;68195;50.854;2.860;2023-03-01T00:06:34;102982.75;;;-1.11;65.83
78845;BME280;68195;50.854;2.860;2023-03-01T00:09:00;102991.53;;;-1.05;66.23
78845;BME280;68195;50.854;2.860;2023-03-01T00:11:30;103023.19;;;-0.78;66.36
78845;BME280;68195;50.854;2.860;2023-03-01T00:13:58;102988.34;;;-0.97;66.27
78845;BME280;68195;50.854;2.860;2023-03-01T00:18:50;102966.28;;;-1.18;66.63
78845;BME280;68195;50.854;2.860;2023-03-01T00:21:16;103023.97;;;-0.81;67.05
78845;BME280;68195;50.854;2.860;2023-03-01T00:23:44;102998.78;;;-0.93;66.72
78845;BME280;68195;50.854;2.860;2023-03-01T00:26:12;103006.94;;;-0.79;66.63
78845;BME280;68195;50.854;2.860;2023-03-01T00:28:38;103026.97;;;-0.67;66.53
78845;BME280;68195;50.854;2.860;2023-03-01T00:31:08;102993.88;;;-0.85;66.72
78845;BME280;68195;50.854;2.860;2023-03-01T00:33:34;103002.59;;;-0.80;67.13
78845;BME280;68195;50.854;2.860;2023-03-01T00:36:00;102993.19;;;-0.81;66.76
78845;BME280;68195;50.854;2.860;2023-03-01T00:38:29;103015.84;;;-0.68;67.56
78845;BME280;68195;50.854;2.860;2023-03-01T00:40:54;103014.94;;;-0.70;67.42
78845;BME280;68195;50.854;2.860;2023-03-01T00:43:25;103010.94;;;-0.62;67.04
78845;BME280;68195;50.854;2.860;2023-03-01T00:45:53;102968.34;;;-0.82;66.43
78845;BME280;68195;50.854;2.860;2023-03-01T00:48:18;102990.91;;;-0.72;67.41
78845;BME280;68195;50.854;2.860;2023-03-01T00:50:48;102972.50;;;-0.86;67.27
78845;BME280;68195;50.854;2.860;2023-03-01T00:53:18;103022.25;;;-0.55;67.24
78845;BME280;68195;50.854;2.860;2023-03-01T00:55:43;103008.44;;;-0.58;67.60
78845;BME280;68195;50.854;2.860;2023-03-01T00:58:08;103007.72;;;-0.54;67.25
78845;BME280;68195;50.854;2.860;2023-03-01T01:00:37;103011.94;;;-0.56;67.80
78845;BME280;68195;50.854;2.860;2023-03-01T01:03:05;102997.81;;;-0.69;68.06
78845;BME280;68195;50.854;2.860;2023-03-01T01:05:34;102997.09;;;-0.65;68.00
78845;BME280;68195;50.854;2.860;2023-03-01T01:08:04;102984.09;;;-0.71;68.57
78845;BME280;68195;50.854;2.860;2023-03-01T01:10:34;102972.75;;;-0.78;68.52
78845;BME280;68195;50.854;2.860;2023-03-01T01:13:04;102999.72;;;-0.64;68.75
78845;BME280;68195;50.854;2.860;2023-03-01T01:15:33;102939.53;;;-1.00;69.35
78845;BME280;68195;50.854;2.860;2023-03-01T01:17:58;102945.50;;;-1.00;69.53
78845;BME280;68195;50.854;2.860;2023-03-01T01:20:24;102976.19;;;-0.77;69.79
78845;BME280;68195;50.854;2.860;2023-03-01T01:22:49;102979.88;;;-0.69;69.55
78845;BME280;68195;50.854;2.860;2023-03-01T01:25:17;102987.81;;;-0.62;69.84
78845;BME280;68195;50.854;2.860;2023-03-01T01:27:47;102985.19;;;-0.63;70.06
78845;BME280;68195;50.854;2.860;2023-03-01T01:30:13;102967.16;;;-0.66;69.85
78845;BME280;68195;50.854;2.860;2023-03-01T01:32:39;102961.16;;;-0.67;69.94
78845;BME280;68195;50.854;2.860;2023-03-01T01:35:04;102947.09;;;-0.78;69.96
78845;BME280;68195;50.854;2.860;2023-03-01T01:37:34;102959.50;;;-0.65;70.27
78845;BME280;68195;50.854;2.860;2023-03-01T01:40:03;102963.66;;;-0.68;70.34
78845;BME280;68195;50.854;2.860;2023-03-01T01:42:31;102941.81;;;-0.83;70.29
78845;BME280;68195;50.854;2.860;2023-03-01T01:47:56;102961.00;;;-0.71;71.25
78845;BME280;68195;50.854;2.860;2023-03-01T01:50:23;102895.78;;;-1.05;71.06
78845;BME280;68195;50.854;2.860;2023-03-01T01:52:50;102907.16;;;-0.97;71.07
78845;BME280;68195;50.854;2.860;2023-03-01T01:55:22;102938.44;;;-0.81;71.48
78845;BME280;68195;50.854;2.860;2023-03-01T01:57:53;102955.09;;;-0.69;71.40
78845;BME280;68195;50.854;2.860;2023-03-01T02:00:25;102939.38;;;-0.79;71.80
78845;BME280;68195;50.854;2.860;2023-03-01T02:03:15;102954.97;;;-0.73;71.38
78845;BME280;68195;50.854;2.860;2023-03-01T02:06:01;102958.53;;;-0.68;72.16
78845;BME280;68195;50.854;2.860;2023-03-01T02:08:30;102912.44;;;-0.92;72.16
78845;BME280;68195;50.854;2.860;2023-03-01T02:10:57;102954.25;;;-0.68;72.29
78845;BME280;68195;50.854;2.860;2023-03-01T02:13:25;102902.97;;;-0.95;72.36
78845;BME280;68195;50.854;2.860;2023-03-01T02:15:51;102899.47;;;-0.97;72.05
78845;BME280;68195;50.854;2.860;2023-03-01T02:18:18;102913.72;;;-0.79;72.45
78845;BME280;68195;50.854;2.860;2023-03-01T02:23:19;102914.50;;;-0.80;72.83
78845;BME280;68195;50.854;2.860;2023-03-01T02:26:21;102916.94;;;-0.85;72.83
78845;BME280;68195;50.854;2.860;2023-03-01T02:28:52;102912.44;;;-0.92;73.55
78845;BME280;68195;50.854;2.860;2023-03-01T02:31:19;102901.97;;;-0.98;73.55
78845;BME280;68195;50.854;2.860;2023-03-01T02:34:06;102907.31;;;-0.92;73.94
78845;BME280;68195;50.854;2.860;2023-03-01T02:36:37;102910.22;;;-0.81;74.35
78845;BME280;68195;50.854;2.860;2023-03-01T02:39:05;102889.28;;;-0.94;73.88
78845;BME280;68195;50.854;2.860;2023-03-01T02:41:35;102885.81;;;-0.96;74.16
78845;BME280;68195;50.854;2.860;2023-03-01T02:44:01;102894.34;;;-0.97;74.53
78845;BME280;68195;50.854;2.860;2023-03-01T02:46:27;102898.84;;;-0.90;74.70
78845;BME280;68195;50.854;2.860;2023-03-01T02:48:57;102918.63;;;-0.86;75.60
78845;BME280;68195;50.854;2.860;2023-03-01T02:52:22;102896.75;;;-1.01;75.80
78845;BME280;68195;50.854;2.860;2023-03-01T02:57:12;102879.25;;;-1.13;76.62
78845;BME280;68195;50.854;2.860;2023-03-01T02:59:41;102869.66;;;-1.19;76.42
78845;BME280;68195;50.854;2.860;2023-03-01T03:02:18;102893.34;;;-1.00;76.83
78845;BME280;68195;50.854;2.860;2023-03-01T03:04:46;102885.00;;;-0.95;76.71
78845;BME280;68195;50.854;2.860;2023-03-01T03:07:11;102854.47;;;-1.14;77.18
78845;BME280;68195;50.854;2.860;2023-03-01T03:09:39;102891.13;;;-0.90;77.17
78845;BME280;68195;50.854;2.860;2023-03-01T03:12:04;102874.53;;;-1.01;77.23
78845;BME280;68195;50.854;2.860;2023-03-01T03:14:30;102844.22;;;-1.14;77.72
78845;BME280;68195;50.854;2.860;2023-03-01T03:17:00;102841.78;;;-1.10;77.04
78845;BME280;68195;50.854;2.860;2023-03-01T03:19:25;102833.13;;;-1.13;77.44
78845;BME280;68195;50.854;2.860;2023-03-01T03:21:53;102863.66;;;-0.94;77.43
78845;BME280;68195;50.854;2.860;2023-03-01T03:24:23;102867.06;;;-0.95;78.02
78845;BME280;68195;50.854;2.860;2023-03-01T03:26:51;102888.00;;;-0.81;77.67
78845;BME280;68195;50.854;2.860;2023-03-01T03:29:16;102885.19;;;-0.89;77.61
78845;BME280;68195;50.854;2.860;2023-03-01T03:31:49;102841.00;;;-1.07;77.39
78845;BME280;68195;50.854;2.860;2023-03-01T03:34:16;102884.38;;;-0.88;78.15
78845;BME280;68195;50.854;2.860;2023-03-01T03:36:45;102875.50;;;-0.97;78.30
78845;BME280;68195;50.854;2.860;2023-03-01T03:39:13;102806.69;;;-1.38;77.67
78845;BME280;68195;50.854;2.860;2023-03-01T03:41:38;102882.53;;;-0.92;78.13
78845;BME280;68195;50.854;2.860;2023-03-01T03:44:04;102884.44;;;-0.85;78.09
78845;BME280;68195;50.854;2.860;2023-03-01T03:46:31;102886.88;;;-0.89;78.17
78845;BME280;68195;50.854;2.860;2023-03-01T03:48:57;102734.50;;;-1.77;77.90
78845;BME280;68195;50.854;2.860;2023-03-01T03:51:28;102839.94;;;-1.14;77.98
78845;BME280;68195;50.854;2.860;2023-03-01T03:53:56;102875.84;;;-0.87;77.52
78845;BME280;68195;50.854;2.860;2023-03-01T03:56:21;102879.97;;;-0.92;78.13
78845;BME280;68195;50.854;2.860;2023-03-01T03:58:51;102864.50;;;-0.93;77.88
78845;BME280;68195;50.854;2.860;2023-03-01T04:01:17;102856.44;;;-1.06;77.97
78845;BME280;68195;50.854;2.860;2023-03-01T04:03:45;102812.56;;;-1.40;78.51
78845;BME280;68195;50.854;2.860;2023-03-01T04:06:12;102838.75;;;-1.24;78.39
78845;BME280;68195;50.854;2.860;2023-03-01T04:08:38;102849.84;;;-1.25;78.57
78845;BME280;68195;50.854;2.860;2023-03-01T04:11:04;102832.34;;;-1.36;79.04
78845;BME280;68195;50.854;2.860;2023-03-01T04:13:49;102835.97;;;-1.31;78.89
78845;BME280;68195;50.854;2.860;2023-03-01T04:16:14;102868.22;;;-1.12;79.28
78845;BME280;68195;50.854;2.860;2023-03-01T04:18:40;102873.22;;;-1.15;78.90
78845;BME280;68195;50.854;2.860;2023-03-01T04:21:07;102867.31;;;-1.13;80.13
78845;BME280;68195;50.854;2.860;2023-03-01T04:23:36;102849.84;;;-1.25;78.77
78845;BME280;68195;50.854;2.860;2023-03-01T04:26:02;102865.63;;;-1.12;79.26
78845;BME280;68195;50.854;2.860;2023-03-01T04:28:34;102874.34;;;-1.07;79.09
78845;BME280;68195;50.854;2.860;2023-03-01T04:31:09;102871.78;;;-1.07;78.83
78845;BME280;68195;50.854;2.860;2023-03-01T04:33:43;102850.06;;;-1.18;78.54
78845;BME280;68195;50.854;2.860;2023-03-01T04:36:10;102877.09;;;-1.01;78.73
78845;BME280;68195;50.854;2.860;2023-03-01T04:38:39;102862.25;;;-1.11;78.71
78845;BME280;68195;50.854;2.860;2023-03-01T04:41:07;102872.69;;;-1.05;78.56
78845;BME280;68195;50.854;2.860;2023-03-01T04:43:33;102843.78;;;-1.27;78.17
78845;BME280;68195;50.854;2.860;2023-03-01T04:46:06;102821.25;;;-1.37;78.75
78845;BME280;68195;50.854;2.860;2023-03-01T04:48:41;102859.59;;;-1.14;78.64
78845;BME280;68195;50.854;2.860;2023-03-01T04:51:07;102863.78;;;-1.16;78.87
78845;BME280;68195;50.854;2.860;2023-03-01T04:53:34;102843.94;;;-1.22;78.60
78845;BME280;68195;50.854;2.860;2023-03-01T04:56:03;102862.44;;;-1.05;78.21
78845;BME280;68195;50.854;2.860;2023-03-01T04:58:28;102800.44;;;-1.46;78.58
78845;BME280;68195;50.854;2.860;2023-03-01T05:00:56;102804.88;;;-1.40;78.36
78845;BME280;68195;50.854;2.860;2023-03-01T05:03:22;102808.53;;;-1.34;78.52
78845;BME280;68195;50.854;2.860;2023-03-01T05:05:52;102817.97;;;-1.33;78.18
78845;BME280;68195;50.854;2.860;2023-03-01T05:08:17;102852.56;;;-1.20;78.86
78845;BME280;68195;50.854;2.860;2023-03-01T05:10:51;102850.78;;;-1.22;78.99
78845;BME280;68195;50.854;2.860;2023-03-01T05:13:18;102837.59;;;-1.33;79.58
78845;BME280;68195;50.854;2.860;2023-03-01T05:15:57;102840.25;;;-1.30;79.11
78845;BME280;68195;50.854;2.860;2023-03-01T05:18:23;102818.25;;;-1.49;79.05
78845;BME280;68195;50.854;2.860;2023-03-01T05:20:52;102817.66;;;-1.42;79.39
78845;BME280;68195;50.854;2.860;2023-03-01T05:23:20;102825.91;;;-1.25;78.84
78845;BME280;68195;50.854;2.860;2023-03-01T05:25:45;102832.81;;;-1.22;78.09
78845;BME280;68195;50.854;2.860;2023-03-01T05:28:11;102828.41;;;-1.27;78.69
78845;BME280;68195;50.854;2.860;2023-03-01T05:30:39;102806.28;;;-1.25;77.24
78845;BME280;68195;50.854;2.860;2023-03-01T05:33:10;102834.03;;;-1.11;77.81
78845;BME280;68195;50.854;2.860;2023-03-01T05:35:42;102842.13;;;-0.99;77.23
78845;BME280;68195;50.854;2.860;2023-03-01T05:38:08;102799.59;;;-1.19;76.17
78845;BME280;68195;50.854;2.860;2023-03-01T05:40:36;102789.75;;;-1.33;76.85
78845;BME280;68195;50.854;2.860;2023-03-01T05:43:01;102833.25;;;-1.09;77.35
78845;BME280;68195;50.854;2.860;2023-03-01T05:45:32;102804.44;;;-1.29;77.65
78845;BME280;68195;50.854;2.860;2023-03-01T05:48:00;102806.22;;;-1.26;77.65
78845;BME280;68195;50.854;2.860;2023-03-01T05:50:28;102828.75;;;-1.16;77.91
78845;BME280;68195;50.854;2.860;2023-03-01T05:53:14;102797.25;;;-1.39;78.00
78845;BME280;68195;50.854;2.860;2023-03-01T05:55:45;102811.13;;;-1.32;78.89
78845;BME280;68195;50.854;2.860;2023-03-01T05:58:17;102762.16;;;-1.67;78.91
78845;BME280;68195;50.854;2.860;2023-03-01T06:00:47;102811.09;;;-1.34;78.46
78845;BME280;68195;50.854;2.860;2023-03-01T06:03:14;102785.72;;;-1.52;79.13
78845;BME280;68195;50.854;2.860;2023-03-01T06:05:44;102791.00;;;-1.47;79.06
78845;BME280;68195;50.854;2.860;2023-03-01T06:08:13;102796.13;;;-1.47;79.08
78845;BME280;68195;50.854;2.860;2023-03-01T06:10:38;102777.81;;;-1.59;79.11
78845;BME280;68195;50.854;2.860;2023-03-01T06:13:04;102760.38;;;-1.70;79.38
78845;BME280;68195;50.854;2.860;2023-03-01T06:15:30;102759.38;;;-1.75;78.98
78845;BME280;68195;50.854;2.860;2023-03-01T06:17:59;102749.72;;;-1.82;79.58
78845;BME280;68195;50.854;2.860;2023-03-01T06:20:30;102799.31;;;-1.54;79.99
78845;BME280;68195;50.854;2.860;2023-03-01T06:23:00;102753.31;;;-1.77;79.49
78845;BME280;68195;50.854;2.860;2023-03-01T06:25:29;102810.56;;;-1.49;79.01
78845;BME280;68195;50.854;2.860;2023-03-01T06:27:57;102797.63;;;-1.54;79.98
78845;BME280;68195;50.854;2.860;2023-03-01T06:30:24;102807.88;;;-1.54;80.14
78845;BME280;68195;50.854;2.860;2023-03-01T06:32:56;102813.00;;;-1.54;80.47
78845;BME280;68195;50.854;2.860;2023-03-01T06:35:28;102809.63;;;-1.53;80.18
78845;BME280;68195;50.854;2.860;2023-03-01T06:37:59;102810.50;;;-1.52;79.81
78845;BME280;68195;50.854;2.860;2023-03-01T06:40:25;102765.09;;;-1.82;80.49
78845;BME280;68195;50.854;2.860;2023-03-01T06:42:53;102808.56;;;-1.58;79.79
78845;BME280;68195;50.854;2.860;2023-03-01T06:45:21;102818.88;;;-1.56;80.27
78845;BME280;68195;50.854;2.860;2023-03-01T06:47:47;102744.84;;;-2.00;80.50
78845;BME280;68195;50.854;2.860;2023-03-01T06:50:13;102825.00;;;-1.53;80.02
78845;BME280;68195;50.854;2.860;2023-03-01T06:52:44;102827.72;;;-1.48;79.44
78845;BME280;68195;50.854;2.860;2023-03-01T06:55:11;102824.28;;;-1.49;80.35
78845;BME280;68195;50.854;2.860;2023-03-01T06:57:37;102799.06;;;-1.62;80.09
78845;BME280;68195;50.854;2.860;2023-03-01T07:00:08;102802.66;;;-1.57;79.51
78845;BME280;68195;50.854;2.860;2023-03-01T07:02:34;102765.22;;;-1.79;80.08
78845;BME280;68195;50.854;2.860;2023-03-01T07:05:02;102826.28;;;-1.40;80.54
78845;BME280;68195;50.854;2.860;2023-03-01T07:07:29;102773.34;;;-1.65;79.67
78845;BME280;68195;50.854;2.860;2023-03-01T07:09:57;102826.44;;;-1.35;79.60
78845;BME280;68195;50.854;2.860;2023-03-01T07:12:27;102825.56;;;-1.36;79.71
78845;BME280;68195;50.854;2.860;2023-03-01T07:14:52;102797.03;;;-1.47;79.34
78845;BME280;68195;50.854;2.860;2023-03-01T07:17:21;102837.22;;;-1.18;79.32
78845;BME280;68195;50.854;2.860;2023-03-01T07:19:46;102816.72;;;-1.18;78.79
78845;BME280;68195;50.854;2.860;2023-03-01T07:22:11;102803.72;;;-1.25;78.93
78845;BME280;68195;50.854;2.860;2023-03-01T07:24:42;102822.00;;;-1.14;78.88
78845;BME280;68195;50.854;2.860;2023-03-01T07:27:13;102827.25;;;-1.09;78.92
78845;BME280;68195;50.854;2.860;2023-03-01T07:29:38;102835.88;;;-1.07;78.29
78845;BME280;68195;50.854;2.860;2023-03-01T07:32:07;102806.66;;;-1.12;78.24
78845;BME280;68195;50.854;2.860;2023-03-01T07:34:32;102821.63;;;-0.97;78.33
78845;BME280;68195;50.854;2.860;2023-03-01T07:37:00;102775.50;;;-1.25;78.58
78845;BME280;68195;50.854;2.860;2023-03-01T07:39:25;102797.41;;;-1.07;78.55
78845;BME280;68195;50.854;2.860;2023-03-01T07:41:51;102733.25;;;-1.37;78.34
78845;BME280;68195;50.854;2.860;2023-03-01T07:44:19;102820.31;;;-0.85;78.51
78845;BME280;68195;50.854;2.860;2023-03-01T07:46:45;102807.50;;;-0.85;78.40
78845;BME280;68195;50.854;2.860;2023-03-01T07:49:10;102810.25;;;-0.78;78.41
78845;BME280;68195;50.854;2.860;2023-03-01T07:51:35;102819.97;;;-0.68;78.01
78845;BME280;68195;50.854;2.860;2023-03-01T07:54:03;102769.03;;;-0.85;77.66
78845;BME280;68195;50.854;2.860;2023-03-01T07:56:31;102808.47;;;-0.52;77.57
78845;BME280;68195;50.854;2.860;2023-03-01T07:58:59;102790.31;;;-0.58;77.24
78845;BME280;68195;50.854;2.860;2023-03-01T08:01:24;102808.88;;;-0.38;76.98
78845;BME280;68195;50.854;2.860;2023-03-01T08:03:52;102808.28;;;-0.28;77.14
78845;BME280;68195;50.854;2.860;2023-03-01T08:06:18;102780.66;;;-0.38;76.79
78845;BME280;68195;50.854;2.860;2023-03-01T08:08:46;102770.31;;;-0.40;76.37
78845;BME280;68195;50.854;2.860;2023-03-01T08:11:13;102808.06;;;-0.06;76.23
78845;BME280;68195;50.854;2.860;2023-03-01T08:13:38;102790.22;;;-0.01;75.77
78845;BME280;68195;50.854;2.860;2023-03-01T08:16:09;102800.78;;;0.10;75.64
78845;BME280;68195;50.854;2.860;2023-03-01T08:18:35;102761.78;;;-0.07;75.75
78845;BME280;68195;50.854;2.860;2023-03-01T08:21:02;102753.47;;;0.02;75.67
78845;BME280;68195;50.854;2.860;2023-03-01T08:23:27;102795.34;;;0.31;75.42
78845;BME280;68195;50.854;2.860;2023-03-01T08:26:03;102706.78;;;-0.17;74.65
78845;BME280;68195;50.854;2.860;2023-03-01T08:28:28;102745.38;;;0.19;74.69
78845;BME280;68195;50.854;2.860;2023-03-01T08:30:56;102750.84;;;0.33;74.81
78845;BME280;68195;50.854;2.860;2023-03-01T08:33:21;102753.69;;;0.44;74.23
78845;BME280;68195;50.854;2.860;2023-03-01T08:35:47;102707.91;;;0.29;74.16
78845;BME280;68195;50.854;2.860;2023-03-01T08:38:12;102748.88;;;0.58;74.01
78845;BME280;68195;50.854;2.860;2023-03-01T08:40:38;102709.94;;;0.43;73.23
78845;BME280;68195;50.854;2.860;2023-03-01T08:43:03;102800.41;;;0.99;73.19
78845;BME280;68195;50.854;2.860;2023-03-01T08:45:28;102760.66;;;0.85;73.11
78845;BME280;68195;50.854;2.860;2023-03-01T08:47:54;102750.25;;;0.80;72.16
78845;BME280;68195;50.854;2.860;2023-03-01T08:50:19;102712.53;;;0.80;72.22
78845;BME280;68195;50.854;2.860;2023-03-01T08:52:45;102757.88;;;1.15;72.66
78845;BME280;68195;50.854;2.860;2023-03-01T08:55:10;102770.31;;;1.36;72.06
78845;BME280;68195;50.854;2.860;2023-03-01T08:57:38;102674.09;;;0.87;71.52
78845;BME280;68195;50.854;2.860;2023-03-01T09:00:06;102769.53;;;1.38;71.17
78845;BME280;68195;50.854;2.860;2023-03-01T09:02:33;102795.94;;;1.71;71.08
78845;BME280;68195;50.854;2.860;2023-03-01T09:04:59;102772.69;;;1.68;69.81
78845;BME280;68195;50.854;2.860;2023-03-01T09:07:28;102697.25;;;1.28;69.88
78845;BME280;68195;50.854;2.860;2023-03-01T09:09:54;102625.59;;;1.05;69.87
78845;BME280;68195;50.854;2.860;2023-03-01T09:12:24;102759.22;;;1.82;69.20
78845;BME280;68195;50.854;2.860;2023-03-01T09:14:54;102714.22;;;1.63;69.01
78845;BME280;68195;50.854;2.860;2023-03-01T09:17:22;102733.72;;;1.96;68.88
78845;BME280;68195;50.854;2.860;2023-03-01T09:19:51;102727.22;;;2.17;68.84
78845;BME280;68195;50.854;2.860;2023-03-01T09:22:19;102711.63;;;2.11;67.83
78845;BME280;68195;50.854;2.860;2023-03-01T09:24:44;102712.56;;;2.14;67.03
78845;BME280;68195;50.854;2.860;2023-03-01T09:27:10;102741.09;;;2.25;66.12
78845;BME280;68195;50.854;2.860;2023-03-01T09:29:36;102751.03;;;2.57;66.67
78845;BME280;68195;50.854;2.860;2023-03-01T09:32:02;102740.91;;;2.66;66.43
78845;BME280;68195;50.854;2.860;2023-03-01T09:34:27;102746.16;;;2.74;65.48
78845;BME280;68195;50.854;2.860;2023-03-01T09:36:59;102715.88;;;2.60;63.99
78845;BME280;68195;50.854;2.860;2023-03-01T09:39:25;102702.09;;;2.60;63.81
78845;BME280;68195;50.854;2.860;2023-03-01T09:42:02;102673.72;;;2.60;63.07
78845;BME280;68195;50.854;2.860;2023-03-01T09:44:40;102737.16;;;3.08;64.17
78845;BME280;68195;50.854;2.860;2023-03-01T09:47:25;102641.03;;;2.59;63.18
78845;BME280;68195;50.854;2.860;2023-03-01T09:50:14;102730.41;;;3.16;61.72
78845;BME280;68195;50.854;2.860;2023-03-01T09:55:20;102690.69;;;3.05;61.56
78845;BME280;68195;50.854;2.860;2023-03-01T09:57:51;102721.19;;;3.38;62.25
78845;BME280;68195;50.854;2.860;2023-03-01T10:06:03;102718.66;;;3.40;59.57
78845;BME280;68195;50.854;2.860;2023-03-01T10:08:40;102719.56;;;3.45;60.37
78845;BME280;68195;50.854;2.860;2023-03-01T10:11:28;102719.84;;;3.69;60.50
78845;BME280;68195;50.854;2.860;2023-03-01T10:16:48;102712.16;;;3.79;59.25
78845;BME280;68195;50.854;2.860;2023-03-01T10:19:38;102704.44;;;3.80;58.81
78845;BME280;68195;50.854;2.860;2023-03-01T10:22:20;102700.97;;;3.80;59.13
78845;BME280;68195;50.854;2.860;2023-03-01T10:24:50;102701.06;;;3.90;57.93
78845;BME280;68195;50.854;2.860;2023-03-01T10:32:13;102674.22;;;3.73;56.61
78845;BME280;68195;50.854;2.860;2023-03-01T10:34:38;102682.09;;;3.88;57.42
78845;BME280;68195;50.854;2.860;2023-03-01T10:37:16;102686.44;;;3.89;57.75
78845;BME280;68195;50.854;2.860;2023-03-01T10:40:04;102683.84;;;3.89;56.60
78845;BME280;68195;50.854;2.860;2023-03-01T10:42:57;102678.59;;;3.82;55.84
78845;BME280;68195;50.854;2.860;2023-03-01T10:50:31;102659.75;;;3.94;55.49
78845;BME280;68195;50.854;2.860;2023-03-01T10:53:02;102679.69;;;4.07;56.22
78845;BME280;68195;50.854;2.860;2023-03-01T10:55:42;102668.34;;;3.93;54.92
78845;BME280;68195;50.854;2.860;2023-03-01T11:00:52;102656.19;;;3.81;55.98
78845;BME280;68195;50.854;2.860;2023-03-01T11:03:21;102653.69;;;3.90;56.72
78845;BME280;68195;50.854;2.860;2023-03-01T11:08:47;102662.34;;;3.95;56.68
78845;BME280;68195;50.854;2.860;2023-03-01T11:11:32;102659.84;;;4.06;56.04
78845;BME280;68195;50.854;2.860;2023-03-01T11:14:07;102648.69;;;4.11;55.97
78845;BME280;68195;50.854;2.860;2023-03-01T11:16:40;102637.63;;;4.28;56.08
78845;BME280;68195;50.854;2.860;2023-03-01T11:21:37;102611.63;;;4.11;55.61
78845;BME280;68195;50.854;2.860;2023-03-01T11:24:06;102650.59;;;4.37;55.42
78845;BME280;68195;50.854;2.860;2023-03-01T11:26:37;102628.09;;;4.24;55.32
78845;BME280;68195;50.854;2.860;2023-03-01T11:29:11;102634.13;;;4.27;54.98
78845;BME280;68195;50.854;2.860;2023-03-01T11:31:39;102624.63;;;4.22;54.39
78845;BME280;68195;50.854;2.860;2023-03-01T11:34:14;102630.72;;;4.30;53.80
78845;BME280;68195;50.854;2.860;2023-03-01T11:44:33;102597.97;;;4.30;55.24
78845;BME280;68195;50.854;2.860;2023-03-01T11:47:22;102621.41;;;4.57;53.57
78845;BME280;68195;50.854;2.860;2023-03-01T11:53:39;102611.97;;;4.65;53.93
78845;BME280;68195;50.854;2.860;2023-03-01T12:02:12;102606.81;;;4.79;54.69
78845;BME280;68195;50.854;2.860;2023-03-01T12:15:55;102583.56;;;4.89;54.41
78845;BME280;68195;50.854;2.860;2023-03-01T12:21:37;102581.84;;;4.91;52.60
78845;BME280;68195;50.854;2.860;2023-03-01T12:27:26;102527.44;;;4.71;52.88
78845;BME280;68195;50.854;2.860;2023-03-01T12:38:48;102535.28;;;5.07;53.45
78845;BME280;68195;50.854;2.860;2023-03-01T12:44:15;102535.28;;;5.07;53.26
78845;BME280;68195;50.854;2.860;2023-03-01T12:49:26;102499.00;;;4.94;53.23
78845;BME280;68195;50.854;2.860;2023-03-01T12:52:00;102474.88;;;5.02;53.27
78845;BME280;68195;50.854;2.860;2023-03-01T12:54:30;102507.69;;;5.12;51.93
78845;BME280;68195;50.854;2.860;2023-03-01T12:57:18;102482.63;;;5.05;53.38
78845;BME280;68195;50.854;2.860;2023-03-01T13:00:17;102504.22;;;5.24;52.05
78845;BME280;68195;50.854;2.860;2023-03-01T13:10:57;102489.56;;;5.17;51.02
78845;BME280;68195;50.854;2.860;2023-03-01T13:13:27;102458.47;;;5.01;51.35
78845;BME280;68195;50.854;2.860;2023-03-01T13:15:56;102488.69;;;5.19;51.09
78845;BME280;68195;50.854;2.860;2023-03-01T13:20:57;102503.38;;;5.23;49.62
78845;BME280;68195;50.854;2.860;2023-03-01T13:23:30;102493.00;;;5.19;49.80
78845;BME280;68195;50.854;2.860;2023-03-01T13:31:05;102438.63;;;5.14;51.31
78845;BME280;68195;50.854;2.860;2023-03-01T13:35:59;102419.63;;;5.09;51.07
78845;BME280;68195;50.854;2.860;2023-03-01T13:41:04;102468.84;;;5.32;49.99
78845;BME280;68195;50.854;2.860;2023-03-01T13:43:35;102466.22;;;5.24;50.24
78845;BME280;68195;50.854;2.860;2023-03-01T13:46:08;102462.78;;;5.34;50.16
78845;BME280;68195;50.854;2.860;2023-03-01T13:48:39;102437.75;;;5.21;50.32
78845;BME280;68195;50.854;2.860;2023-03-01T13:51:09;102434.31;;;5.25;51.30
78845;BME280;68195;50.854;2.860;2023-03-01T13:53:42;102432.56;;;5.26;51.01
78845;BME280;68195;50.854;2.860;2023-03-01T13:56:14;102441.19;;;5.28;49.92
78845;BME280;68195;50.854;2.860;2023-03-01T13:58:50;102442.03;;;5.38;50.34
78845;BME280;68195;50.854;2.860;2023-03-01T14:01:26;102433.41;;;5.39;51.48
78845;BME280;68195;50.854;2.860;2023-03-01T14:03:53;102378.19;;;5.06;51.54
78845;BME280;68195;50.854;2.860;2023-03-01T14:06:27;102422.19;;;5.53;51.54
78845;BME280;68195;50.854;2.860;2023-03-01T14:09:23;102318.69;;;4.80;49.93
78845;BME280;68195;50.854;2.860;2023-03-01T14:11:53;102415.25;;;5.46;51.27
78845;BME280;68195;50.854;2.860;2023-03-01T14:14:52;102410.94;;;5.48;50.83
78845;BME280;68195;50.854;2.860;2023-03-01T14:20:14;102417.88;;;5.35;51.37
78845;BME280;68195;50.854;2.860;2023-03-01T14:22:43;102411.81;;;5.43;51.54
78845;BME280;68195;50.854;2.860;2023-03-01T14:27:51;102417.00;;;5.47;51.69
78845;BME280;68195;50.854;2.860;2023-03-01T14:30:22;102364.38;;;5.21;52.02
78845;BME280;68195;50.854;2.860;2023-03-01T14:32:59;102397.09;;;5.60;51.76
78845;BME280;68195;50.854;2.860;2023-03-01T14:35:32;102359.19;;;5.31;52.28
78845;BME280;68195;50.854;2.860;2023-03-01T14:37:58;102318.59;;;5.26;52.88
78845;BME280;68195;50.854;2.860;2023-03-01T14:40:28;102372.94;;;5.50;52.28
78845;BME280;68195;50.854;2.860;2023-03-01T14:42:56;102359.16;;;5.42;53.02
78845;BME280;68195;50.854;2.860;2023-03-01T14:45:25;102377.28;;;5.42;50.66
78845;BME280;68195;50.854;2.860;2023-03-01T14:47:59;102336.72;;;5.27;51.08
78845;BME280;68195;50.854;2.860;2023-03-01T14:52:59;102358.25;;;5.55;50.63
78845;BME280;68195;50.854;2.860;2023-03-01T14:55:40;102360.84;;;5.49;51.14
78845;BME280;68195;50.854;2.860;2023-03-01T14:58:13;102320.31;;;5.30;50.88
78845;BME280;68195;50.854;2.860;2023-03-01T15:01:04;102363.44;;;5.42;50.68
78845;BME280;68195;50.854;2.860;2023-03-01T15:03:44;102297.94;;;5.06;51.05
78845;BME280;68195;50.854;2.860;2023-03-01T15:06:15;102317.75;;;5.24;51.88